Observation data for Turkey on 06/16/2019      Previous  Date  Next       Current Mesonet Observations  Soil Data  Daily Summary Page  Observations in Plain Language
KTUR 160500Z 25001KT 20/14 A2987 RMK A01 T01980142  RH  071%=      5-min Rain = 0
KTUR 160505Z 31001KT 20/14 A2988 RMK A01 T01970142  RH  072%=      5-min Rain = 0
KTUR 160510Z 00003KT 20/14 A2989 RMK A01 T01990138  RH  069%=      5-min Rain = 0
KTUR 160515Z 05003KT 20/14 A299 RMK A01 T01990139  RH  070%=      5-min Rain = 0
KTUR 160520Z 11005KT 20/14 A2991 RMK A01 T02010139  RH  069%=      5-min Rain = 0
KTUR 160525Z 15004KT 20/14 A2991 RMK A01 T02030142  RH  069%=      5-min Rain = 0
KTUR 160530Z 14003KT 20/14 A2991 RMK A01 T02030140  RH  068%=      5-min Rain = 0
KTUR 160535Z 08001KT 21/13 A2991 RMK A01 T02060134  RH  064%=      5-min Rain = 0
KTUR 160540Z 33002KT 21/14 A2992 RMK A01 T02060137  RH  066%=      5-min Rain = 0
KTUR 160545Z 35003KT 20/14 A2992 RMK A01 T02030137  RH  067%=      5-min Rain = 0
KTUR 160550Z 35004KT 20/14 A2992 RMK A01 T02010139  RH  069%=      5-min Rain = 0
KTUR 160555Z 36004KT 20/14 A2993 RMK A01 T01990138  RH  069%=      5-min Rain = 0
KTUR 160600Z 00005KT 20/14 A2993 RMK A01 T01980135  RH  068%=      5-min Rain = 0
KTUR 160605Z 36006KT 20/13 A2992 RMK A01 T01990129  RH  065%=      5-min Rain = 0
KTUR 160610Z 35006KT 20/13 A2992 RMK A01 T01970126  RH  065%=      5-min Rain = 0
KTUR 160615Z 34005KT 20/13 A2992 RMK A01 T01960125  RH  065%=      5-min Rain = 0
KTUR 160620Z 34005KT 20/12 A2992 RMK A01 T01960123  RH  064%=      5-min Rain = 0
KTUR 160625Z 34005KT 20/12 A2992 RMK A01 T01950123  RH  064%=      5-min Rain = 0
KTUR 160630Z 35004KT 19/12 A2992 RMK A01 T01940122  RH  064%=      5-min Rain = 0
KTUR 160635Z 01003KT 19/12 A2992 RMK A01 T01940122  RH  064%=      5-min Rain = 0
KTUR 160640Z 03003KT 19/12 A2992 RMK A01 T01930123  RH  065%=      5-min Rain = 0
KTUR 160645Z 02005KT 19/12 A2992 RMK A01 T01930122  RH  064%=      5-min Rain = 0
KTUR 160650Z 01006KT 19/12 A2991 RMK A01 T01900124  RH  067%=      5-min Rain = 0
KTUR 160655Z 02006KT 19/12 A2991 RMK A01 T01890123  RH  067%=      5-min Rain = 0
KTUR 160700Z 02006KT 19/12 A2992 RMK A01 T01890122  RH  066%=      5-min Rain = 0
KTUR 160705Z 03006KT 19/12 A2992 RMK A01 T01920119  RH  064%=      5-min Rain = 0
KTUR 160710Z 04006KT 19/12 A2992 RMK A01 T01930120  RH  064%=      5-min Rain = 0
KTUR 160715Z 06007KT 19/12 A2992 RMK A01 T01910121  RH  065%=      5-min Rain = 0
KTUR 160720Z 07008KT 19/12 A2992 RMK A01 T01890123  RH  067%=      5-min Rain = 0
KTUR 160725Z 06008KT 19/13 A2991 RMK A01 T01900125  RH  067%=      5-min Rain = 0
KTUR 160730Z 06007KT 19/13 A2991 RMK A01 T01880126  RH  069%=      5-min Rain = 0
KTUR 160735Z 07006KT 19/13 A2991 RMK A01 T01880127  RH  069%=      5-min Rain = 0
KTUR 160740Z 08006KT 19/13 A2991 RMK A01 T01880127  RH  069%=      5-min Rain = 0
KTUR 160745Z 07007KT 19/13 A2991 RMK A01 T01880128  RH  069%=      5-min Rain = 0
KTUR 160750Z 07007KT 19/13 A2991 RMK A01 T01870128  RH  070%=      5-min Rain = 0
KTUR 160755Z 06007KT 19/13 A299 RMK A01 T01900126  RH  067%=      5-min Rain = 0
KTUR 160800Z 06007KT 19/13 A299 RMK A01 T01900125  RH  067%=      5-min Rain = 0
KTUR 160805Z 06007KT 19/12 A299 RMK A01 T01900124  RH  067%=      5-min Rain = 0
KTUR 160810Z 05005KT 19/13 A299 RMK A01 T01880125  RH  068%=      5-min Rain = 0
KTUR 160815Z 04006KT 19/13 A2991 RMK A01 T01870125  RH  068%=      5-min Rain = 0
KTUR 160820Z 03005KT 19/12 A2991 RMK A01 T01860124  RH  068%=      5-min Rain = 0
KTUR 160825Z 03005KT 18/13 A2991 RMK A01 T01830125  RH  070%=      5-min Rain = 0
KTUR 160830Z 02004KT 18/13 A2991 RMK A01 T01810125  RH  071%=      5-min Rain = 0
KTUR 160835Z 01003KT 18/13 A2991 RMK A01 T01790125  RH  072%=      5-min Rain = 0
KTUR 160840Z 34003KT 18/13 A2992 RMK A01 T01780125  RH  072%=      5-min Rain = 0
KTUR 160845Z 34002KT 18/13 A2992 RMK A01 T01770126  RH  073%=      5-min Rain = 0
KTUR 160850Z 32003KT 18/13 A2992 RMK A01 T01770126  RH  074%=      5-min Rain = 0
KTUR 160855Z 35005KT 18/13 A2992 RMK A01 T01770126  RH  074%=      5-min Rain = 0
KTUR 160900Z 33006KT 18/13 A2992 RMK A01 T01770127  RH  074%=      5-min Rain = 0
KTUR 160905Z 34006KT 18/13 A2992 RMK A01 T01780128  RH  074%=      5-min Rain = 0
KTUR 160910Z 33005KT 18/13 A2992 RMK A01 T01790127  RH  073%=      5-min Rain = 0
KTUR 160915Z 34005KT 18/13 A2991 RMK A01 T01780127  RH  074%=      5-min Rain = 0
KTUR 160920Z 00004KT 18/13 A2991 RMK A01 T01770128  RH  075%=      5-min Rain = 0
KTUR 160925Z 01005KT 17/13 A2991 RMK A01 T01740130  RH  077%=      5-min Rain = 0
KTUR 160930Z 03006KT 17/13 A299 RMK A01 T01740130  RH  077%=      5-min Rain = 0
KTUR 160935Z 02005KT 18/13 A299 RMK A01 T01750129  RH  076%=      5-min Rain = 0
KTUR 160940Z 05004KT 18/13 A299 RMK A01 T01780128  RH  074%=      5-min Rain = 0
KTUR 160945Z 04002KT 18/13 A2991 RMK A01 T01800126  RH  072%=      5-min Rain = 0
KTUR 160950Z 26002KT 18/13 A2992 RMK A01 T01810128  RH  073%=      5-min Rain = 0
KTUR 160955Z 27003KT 18/13 A2992 RMK A01 T01810130  RH  074%=      5-min Rain = 0
KTUR 161000Z 28005KT 18/13 A2992 RMK A01 T01790130  RH  075%=      5-min Rain = 0
KTUR 161005Z 28004KT 18/13 A2991 RMK A01 T01790130  RH  075%=      5-min Rain = 0
KTUR 161010Z 28005KT 18/13 A2991 RMK A01 T01760133  RH  077%=      5-min Rain = 0
KTUR 161015Z 28004KT 18/13 A2991 RMK A01 T01760132  RH  077%=      5-min Rain = 0
KTUR 161020Z 27005KT 18/13 A2991 RMK A01 T01780132  RH  076%=      5-min Rain = 0
KTUR 161025Z 29004KT 18/13 A2991 RMK A01 T01770132  RH  076%=      5-min Rain = 0
KTUR 161030Z 28004KT 18/13 A2991 RMK A01 T01770133  RH  077%=      5-min Rain = 0
KTUR 161035Z 28005KT 18/13 A2991 RMK A01 T01760134  RH  078%=      5-min Rain = 0
KTUR 161040Z 27005KT 18/13 A2991 RMK A01 T01760133  RH  077%=      5-min Rain = 0
KTUR 161045Z 25004KT 18/13 A2991 RMK A01 T01780134  RH  077%=      5-min Rain = 0
KTUR 161050Z 23004KT 18/13 A299 RMK A01 T01780134  RH  077%=      5-min Rain = 0
KTUR 161055Z 25003KT 18/14 A299 RMK A01 T01780135  RH  078%=      5-min Rain = 0
KTUR 161100Z 29004KT 18/14 A299 RMK A01 T01790135  RH  077%=      5-min Rain = 0
KTUR 161105Z 30003KT 18/14 A2989 RMK A01 T01780135  RH  078%=      5-min Rain = 0
KTUR 161110Z 30003KT 18/13 A2989 RMK A01 T01770134  RH  078%=      5-min Rain = 0
KTUR 161115Z 27002KT 18/14 A2989 RMK A01 T01770136  RH  078%=      5-min Rain = 0
KTUR 161120Z 22002KT 18/14 A299 RMK A01 T01780139  RH  079%=      5-min Rain = 0
KTUR 161125Z 22003KT 18/14 A2989 RMK A01 T01780140  RH  080%=      5-min Rain = 0
KTUR 161130Z 24004KT 18/14 A299 RMK A01 T01790141  RH  080%=      5-min Rain = 0
KTUR 161135Z 25006KT 18/14 A2991 RMK A01 T01800137  RH  078%=      5-min Rain = 0
KTUR 161140Z 25004KT 18/14 A2991 RMK A01 T01800138  RH  078%=      5-min Rain = 0
KTUR 161145Z 26006KT 18/14 A2992 RMK A01 T01790139  RH  079%=      5-min Rain = 0
KTUR 161150Z 27005KT 18/14 A2992 RMK A01 T01790136  RH  077%=      5-min Rain = 0
KTUR 161155Z 28005KT 18/13 A2992 RMK A01 T01800134  RH  076%=      5-min Rain = 0
KTUR 161200Z 28005KT 18/13 A2992 RMK A01 T01800133  RH  076%=      5-min Rain = 0
KTUR 161205Z 27006KT 18/13 A2993 RMK A01 T01810132  RH  074%=      5-min Rain = 0
KTUR 161210Z 29005KT 18/13 A2993 RMK A01 T01830131  RH  073%=      5-min Rain = 0
KTUR 161215Z 28007KT 18/13 A2993 RMK A01 T01830132  RH  074%=      5-min Rain = 0
KTUR 161220Z 28008KT 18/13 A2993 RMK A01 T01830132  RH  073%=      5-min Rain = 0
KTUR 161225Z 28006KT 18/14 A2993 RMK A01 T01820135  RH  076%=      5-min Rain = 0
KTUR 161230Z 29007KT 18/14 A2993 RMK A01 T01800137  RH  077%=      5-min Rain = 0
KTUR 161235Z 29007KT 18/14 A2993 RMK A01 T01810136  RH  077%=      5-min Rain = 0
KTUR 161240Z 30005KT 18/14 A2993 RMK A01 T01820135  RH  075%=      5-min Rain = 0
KTUR 161245Z 31004KT 18/14 A2992 RMK A01 T01830136  RH  076%=      5-min Rain = 0
KTUR 161250Z 31004KT 18/14 A2992 RMK A01 T01820138  RH  077%=      5-min Rain = 0
KTUR 161255Z 36002KT 18/14 A2992 RMK A01 T01800139  RH  078%=      5-min Rain = 0
KTUR 161300Z 35002KT 18/14 A2993 RMK A01 T01810142  RH  080%=      5-min Rain = 0
KTUR 161305Z 28005KT 18/14 A2994 RMK A01 T01810143  RH  080%=      5-min Rain = 0
KTUR 161310Z 29003KT 18/14 A2994 RMK A01 T01820139  RH  078%=      5-min Rain = 0
KTUR 161315Z 29004KT 19/14 A2994 RMK A01 T01850138  RH  075%=      5-min Rain = 0
KTUR 161320Z 31005KT 19/14 A2993 RMK A01 T01890138  RH  074%=      5-min Rain = 0
KTUR 161325Z 30006KT 19/14 A2993 RMK A01 T01890144  RH  077%=      5-min Rain = 0
KTUR 161330Z 29006KT 19/14 A2994 RMK A01 T01900137  RH  073%=      5-min Rain = 0
KTUR 161335Z 28006KT 19/14 A2995 RMK A01 T01930138  RH  072%=      5-min Rain = 0
KTUR 161340Z 29005KT 20/14 A2996 RMK A01 T01950136  RH  070%=      5-min Rain = 0
KTUR 161345Z 28005KT 20/14 A2996 RMK A01 T01960140  RH  072%=      5-min Rain = 0
KTUR 161350Z 29004KT 20/14 A2996 RMK A01 T01970138  RH  071%=      5-min Rain = 0
KTUR 161355Z 29005KT 20/14 A2997 RMK A01 T01970138  RH  070%=      5-min Rain = 0
KTUR 161400Z 30005KT 20/14 A2996 RMK A01 T01960141  RH  072%=      5-min Rain = 0
KTUR 161405Z 29006KT 20/15 A2997 RMK A01 T01960145  RH  074%=      5-min Rain = 0
KTUR 161410Z 30006KT 20/15 A2997 RMK A01 T01960146  RH  074%=      5-min Rain = 0
KTUR 161415Z 31006KT 19/15 A2997 RMK A01 T01940148  RH  076%=      5-min Rain = 0
KTUR 161420Z 29006KT 19/15 A2998 RMK A01 T01940151  RH  078%=      5-min Rain = 0
KTUR 161425Z 31007KT 19/15 A2998 RMK A01 T01940148  RH  076%=      5-min Rain = 0
KTUR 161430Z 31006KT 19/15 A2998 RMK A01 T01940146  RH  075%=      5-min Rain = 0
KTUR 161435Z 30006KT 19/15 A2998 RMK A01 T01940145  RH  075%=      5-min Rain = 0
KTUR 161440Z 31007KT 19/15 A2998 RMK A01 T01930147  RH  076%=      5-min Rain = 0
KTUR 161445Z 31006KT 19/15 A2998 RMK A01 T01930148  RH  077%=      5-min Rain = 0
KTUR 161450Z 32005KT 19/15 A2998 RMK A01 T01930149  RH  077%=      5-min Rain = 0
KTUR 161455Z 32007KT 20/15 A2998 RMK A01 T01950150  RH  077%=      5-min Rain = 0
KTUR 161500Z 32007KT 20/15 A2998 RMK A01 T01950148  RH  076%=      5-min Rain = 0
KTUR 161505Z 32006KT 20/15 A2998 RMK A01 T01950147  RH  075%=      5-min Rain = 0
KTUR 161510Z 32008KT 20/15 A2999 RMK A01 T01950145  RH  074%=      5-min Rain = 0
KTUR 161515Z 32009KT 20/15 A2998 RMK A01 T01950146  RH  075%=      5-min Rain = 0
KTUR 161520Z 32010KT 20/15 A2998 RMK A01 T01950146  RH  075%=      5-min Rain = 0
KTUR 161525Z 32009KT 20/15 A2998 RMK A01 T01950147  RH  075%=      5-min Rain = 0
KTUR 161530Z 31010KT 20/15 A2999 RMK A01 T01950147  RH  075%=      5-min Rain = 0
KTUR 161535Z 31010KT 20/15 A2999 RMK A01 T01960147  RH  075%=      5-min Rain = 0
KTUR 161540Z 31009KT 20/15 A2999 RMK A01 T01970149  RH  075%=      5-min Rain = 0
KTUR 161545Z 31010KT 20/15 A2999 RMK A01 T01980149  RH  075%=      5-min Rain = 0
KTUR 161550Z 31011KT 20/15 A2999 RMK A01 T01980147  RH  074%=      5-min Rain = 0
KTUR 161555Z 32011KT 20/15 A2998 RMK A01 T01990148  RH  074%=      5-min Rain = 0
KTUR 161600Z 32012KT 20/15 A2998 RMK A01 T02000148  RH  073%=      5-min Rain = 0
KTUR 161605Z 32012KT 20/15 A2999 RMK A01 T02000148  RH  074%=      5-min Rain = 0
KTUR 161610Z 31012KT 20/15 A2999 RMK A01 T01990147  RH  073%=      5-min Rain = 0
KTUR 161615Z 32011KT 20/15 A2999 RMK A01 T02010150  RH  074%=      5-min Rain = 0
KTUR 161620Z 32011KT 20/15 A2998 RMK A01 T02020150  RH  073%=      5-min Rain = 0
KTUR 161625Z 32011KT 20/15 A2998 RMK A01 T02020150  RH  074%=      5-min Rain = 0
KTUR 161630Z 33011KT 20/15 A2998 RMK A01 T02030151  RH  074%=      5-min Rain = 0
KTUR 161635Z 33010KT 21/15 A2998 RMK A01 T02050153  RH  074%=      5-min Rain = 0
KTUR 161640Z 33009KT 20/15 A2998 RMK A01 T02040152  RH  074%=      5-min Rain = 0
KTUR 161645Z 32009KT 21/15 A2998 RMK A01 T02060154  RH  074%=      5-min Rain = 0
KTUR 161650Z 32008KT 21/16 A2998 RMK A01 T02080155  RH  073%=      5-min Rain = 0
KTUR 161655Z 32009KT 21/15 A2998 RMK A01 T02110153  RH  071%=      5-min Rain = 0
KTUR 161700Z 32009KT 21/15 A2998 RMK A01 T02120152  RH  070%=      5-min Rain = 0
KTUR 161705Z 32008KT 21/15 A2998 RMK A01 T02120154  RH  071%=      5-min Rain = 0
KTUR 161710Z 33008KT 21/15 A2998 RMK A01 T02120153  RH  071%=      5-min Rain = 0
KTUR 161715Z 32008KT 21/15 A2998 RMK A01 T02140154  RH  070%=      5-min Rain = 0
KTUR 161720Z 33006KT 22/15 A2998 RMK A01 T02160153  RH  069%=      5-min Rain = 0
KTUR 161725Z 33007KT 22/15 A2998 RMK A01 T02180153  RH  068%=      5-min Rain = 0
KTUR 161730Z 34005KT 22/15 A2997 RMK A01 T02190154  RH  068%=      5-min Rain = 0
KTUR 161735Z 34006KT 22/15 A2997 RMK A01 T02210150  RH  065%=      5-min Rain = 0
KTUR 161740Z 35003KT 22/15 A2997 RMK A01 T02170147  RH  066%=      5-min Rain = 0
KTUR 161745Z 34005KT 22/15 A2997 RMK A01 T02190151  RH  067%=      5-min Rain = 0
KTUR 161750Z 33003KT 22/15 A2997 RMK A01 T02200149  RH  065%=      5-min Rain = 0
KTUR 161755Z 32003KT 22/15 A2997 RMK A01 T02210149  RH  065%=      5-min Rain = 0
KTUR 161800Z 00002KT 22/15 A2997 RMK A01 T02220148  RH  064%=      5-min Rain = 0
KTUR 161805Z 28001KT 22/15 A2996 RMK A01 T02240148  RH  063%=      5-min Rain = 0
KTUR 161810Z 24001KT 23/15 A2996 RMK A01 T02260146  RH  062%=      5-min Rain = 0
KTUR 161815Z 03002KT 23/15 A2996 RMK A01 T02270146  RH  062%=      5-min Rain = 0
KTUR 161820Z 02003KT 23/14 A2996 RMK A01 T02260144  RH  061%=      5-min Rain = 0
KTUR 161825Z 36001KT 23/14 A2996 RMK A01 T02260144  RH  061%=      5-min Rain = 0
KTUR 161830Z 36003KT 23/14 A2996 RMK A01 T02290143  RH  060%=      5-min Rain = 0
KTUR 161835Z 35003KT 23/14 A2996 RMK A01 T02270143  RH  060%=      5-min Rain = 0
KTUR 161840Z 02003KT 23/14 A2996 RMK A01 T02280142  RH  060%=      5-min Rain = 0
KTUR 161845Z 03001KT 23/14 A2995 RMK A01 T02310144  RH  059%=      5-min Rain = 0
KTUR 161850Z 03001KT 23/14 A2995 RMK A01 T02330143  RH  058%=      5-min Rain = 0
KTUR 161855Z 34003KT 23/15 A2995 RMK A01 T02320146  RH  060%=      5-min Rain = 0
KTUR 161900Z 32004KT 23/15 A2995 RMK A01 T02310147  RH  060%=      5-min Rain = 0
KTUR 161905Z 33004KT 23/15 A2995 RMK A01 T02340150  RH  060%=      5-min Rain = 0
KTUR 161910Z 32005KT 24/15 A2995 RMK A01 T02360151  RH  060%=      5-min Rain = 0
KTUR 161915Z 33006KT 24/15 A2995 RMK A01 T02370151  RH  060%=      5-min Rain = 0
KTUR 161920Z 34004KT 24/15 A2994 RMK A01 T02400150  RH  058%=      5-min Rain = 0
KTUR 161925Z 35004KT 24/15 A2994 RMK A01 T02400148  RH  057%=      5-min Rain = 0
KTUR 161930Z 32004KT 24/15 A2994 RMK A01 T02420148  RH  057%=      5-min Rain = 0
KTUR 161935Z 31005KT 25/15 A2994 RMK A01 T02450148  RH  056%=      5-min Rain = 0
KTUR 161940Z 34006KT 24/15 A2994 RMK A01 T02420146  RH  056%=      5-min Rain = 0
KTUR 161945Z 32005G10KT 25/15 A2993 RMK A01 T02460150  RH  056%=      5-min Rain = 0
KTUR 161950Z 33006KT 25/15 A2993 RMK A01 T02470146  RH  055%=      5-min Rain = 0
KTUR 161955Z 32005KT 25/14 A2993 RMK A01 T02500142  RH  052%=      5-min Rain = 0
KTUR 162000Z 34005G10KT 25/13 A2993 RMK A01 T02530134  RH  049%=      5-min Rain = 0
KTUR 162005Z 30006G11KT 25/13 A2993 RMK A01 T02540129  RH  047%=      5-min Rain = 0
KTUR 162010Z 28006KT 25/13 A2993 RMK A01 T02530127  RH  046%=      5-min Rain = 0
KTUR 162015Z 32004KT 25/14 A2993 RMK A01 T02530136  RH  049%=      5-min Rain = 0
KTUR 162020Z 27004G9KT 25/14 A2993 RMK A01 T02540138  RH  050%=      5-min Rain = 0
KTUR 162025Z 28006G11KT 26/14 A2992 RMK A01 T02550142  RH  051%=      5-min Rain = 0
KTUR 162030Z 31004KT 26/14 A2993 RMK A01 T02580143  RH  050%=      5-min Rain = 0
KTUR 162035Z 29006KT 26/14 A2992 RMK A01 T02560144  RH  051%=      5-min Rain = 0
KTUR 162040Z 32005KT 26/15 A2992 RMK A01 T02570146  RH  051%=      5-min Rain = 0
KTUR 162045Z 35004KT 26/15 A2992 RMK A01 T02600145  RH  050%=      5-min Rain = 0
KTUR 162050Z 36005KT 26/14 A2992 RMK A01 T02610144  RH  050%=      5-min Rain = 0
KTUR 162055Z 01005KT 26/14 A2992 RMK A01 T02600144  RH  050%=      5-min Rain = 0
KTUR 162100Z 01004KT 26/14 A2992 RMK A01 T02590143  RH  050%=      5-min Rain = 0
KTUR 162105Z 02004KT 26/14 A2992 RMK A01 T02570144  RH  051%=      5-min Rain = 0
KTUR 162110Z 34004KT 26/14 A2991 RMK A01 T02580144  RH  050%=      5-min Rain = 0
KTUR 162115Z 31006KT 26/15 A2991 RMK A01 T02600145  RH  050%=      5-min Rain = 0
KTUR 162120Z 33003G8KT 26/15 A2991 RMK A01 T02620146  RH  050%=      5-min Rain = 0
KTUR 162125Z 33007KT 26/15 A2991 RMK A01 T02640145  RH  049%=      5-min Rain = 0
KTUR 162130Z 35007KT 26/14 A2991 RMK A01 T02620143  RH  049%=      5-min Rain = 0
KTUR 162135Z 32004KT 26/14 A2992 RMK A01 T02610143  RH  049%=      5-min Rain = 0
KTUR 162140Z 29005KT 26/14 A2992 RMK A01 T02610140  RH  048%=      5-min Rain = 0
KTUR 162145Z 31004KT 26/14 A2992 RMK A01 T02610139  RH  048%=      5-min Rain = 0
KTUR 162150Z 34004KT 26/14 A2991 RMK A01 T02610139  RH  048%=      5-min Rain = 0
KTUR 162155Z 34005KT 26/14 A2991 RMK A01 T02620140  RH  048%=      5-min Rain = 0
KTUR 162200Z 31005KT 26/14 A2991 RMK A01 T02630138  RH  047%=      5-min Rain = 0
KTUR 162205Z 30003KT 26/14 A2991 RMK A01 T02630139  RH  047%=      5-min Rain = 0
KTUR 162210Z 35003KT 27/15 A2991 RMK A01 T02700145  RH  047%=      5-min Rain = 0
KTUR 162215Z 00008KT 27/15 A2991 RMK A01 T02680149  RH  049%=      5-min Rain = 0
KTUR 162220Z 02005KT 26/15 A2991 RMK A01 T02600145  RH  050%=      5-min Rain = 0
KTUR 162225Z 33004KT 26/15 A2991 RMK A01 T02600146  RH  051%=      5-min Rain = 0
KTUR 162230Z 33005G11KT 26/15 A2991 RMK A01 T02620151  RH  052%=      5-min Rain = 0
KTUR 162235Z 34006KT 26/15 A2991 RMK A01 T02630147  RH  050%=      5-min Rain = 0
KTUR 162240Z 32006KT 26/15 A2991 RMK A01 T02620147  RH  050%=      5-min Rain = 0
KTUR 162245Z 34007KT 26/15 A2991 RMK A01 T02630148  RH  050%=      5-min Rain = 0
KTUR 162250Z 35007KT 26/15 A2991 RMK A01 T02640148  RH  050%=      5-min Rain = 0
KTUR 162255Z 36008KT 26/15 A2991 RMK A01 T02640148  RH  050%=      5-min Rain = 0
KTUR 162300Z 35007KT 26/15 A299 RMK A01 T02620149  RH  051%=      5-min Rain = 0
KTUR 162305Z 34005KT 26/15 A299 RMK A01 T02600151  RH  052%=      5-min Rain = 0
KTUR 162310Z 33008KT 26/15 A299 RMK A01 T02590151  RH  053%=      5-min Rain = 0
KTUR 162315Z 33008KT 26/15 A299 RMK A01 T02570153  RH  054%=      5-min Rain = 0
KTUR 162320Z 33008KT 27/16 A299 RMK A01 T02650159  RH  053%=      5-min Rain = 0
KTUR 162325Z 34007KT 27/16 A299 RMK A01 T02670157  RH  052%=      5-min Rain = 0
KTUR 162330Z 32007KT 27/16 A299 RMK A01 T02660156  RH  052%=      5-min Rain = 0
KTUR 162335Z 34005KT 26/16 A2989 RMK A01 T02640156  RH  053%=      5-min Rain = 0
KTUR 162340Z 34007KT 26/16 A2989 RMK A01 T02640157  RH  053%=      5-min Rain = 0
KTUR 162345Z 35006KT 26/16 A2989 RMK A01 T02640157  RH  053%=      5-min Rain = 0
KTUR 162350Z 33009KT 27/16 A2989 RMK A01 T02650159  RH  053%=      5-min Rain = 0
KTUR 162355Z 35007KT 27/16 A2989 RMK A01 T02670160  RH  053%=      5-min Rain = 0
KTUR 170000Z 35006KT 27/16 A2989 RMK A01 T02650159  RH  053%=      5-min Rain = 0
KTUR 170005Z 02008KT 27/16 A299 RMK A01 T02660160  RH  053%=      5-min Rain = 0
KTUR 170010Z 01006KT 27/16 A2989 RMK A01 T02660159  RH  053%=      5-min Rain = 0
KTUR 170015Z 01008KT 27/16 A2989 RMK A01 T02670158  RH  052%=      5-min Rain = 0
KTUR 170020Z 36006KT 27/16 A2989 RMK A01 T02660158  RH  053%=      5-min Rain = 0
KTUR 170025Z 01007KT 27/16 A299 RMK A01 T02660157  RH  052%=      5-min Rain = 0
KTUR 170030Z 02008KT 27/16 A299 RMK A01 T02660157  RH  052%=      5-min Rain = 0
KTUR 170035Z 01007KT 26/16 A299 RMK A01 T02640158  RH  053%=      5-min Rain = 0
KTUR 170040Z 03008KT 26/16 A299 RMK A01 T02640158  RH  053%=      5-min Rain = 0
KTUR 170045Z 02007KT 26/16 A299 RMK A01 T02620158  RH  054%=      5-min Rain = 0
KTUR 170050Z 01007KT 26/16 A299 RMK A01 T02610162  RH  056%=      5-min Rain = 0
KTUR 170055Z 01008KT 26/17 A2991 RMK A01 T02560166  RH  059%=      5-min Rain = 0
KTUR 170100Z 00006KT 25/17 A2991 RMK A01 T02520167  RH  061%=      5-min Rain = 0
KTUR 170105Z 00006KT 25/17 A2991 RMK A01 T02500167  RH  062%=      5-min Rain = 0
KTUR 170110Z 36005KT 25/17 A2991 RMK A01 T02480168  RH  062%=      5-min Rain = 0
KTUR 170115Z 36005KT 25/17 A2991 RMK A01 T02470168  RH  063%=      5-min Rain = 0
KTUR 170120Z 01004KT 24/17 A2991 RMK A01 T02440168  RH  064%=      5-min Rain = 0
KTUR 170125Z 02005KT 24/16 A2991 RMK A01 T02440164  RH  063%=      5-min Rain = 0
KTUR 170130Z 02006KT 24/16 A2991 RMK A01 T02430160  RH  061%=      5-min Rain = 0
KTUR 170135Z 01006KT 24/16 A2991 RMK A01 T02410162  RH  063%=      5-min Rain = 0
KTUR 170140Z 01006KT 24/16 A2991 RMK A01 T02390162  RH  064%=      5-min Rain = 0
KTUR 170145Z 01006KT 24/16 A2992 RMK A01 T02350162  RH  065%=      5-min Rain = 0
KTUR 170150Z 01005KT 23/16 A2992 RMK A01 T02320161  RH  066%=      5-min Rain = 0
KTUR 170155Z 01005KT 23/16 A2993 RMK A01 T02280161  RH  067%=      5-min Rain = 0
KTUR 170200Z 02006KT 23/16 A2993 RMK A01 T02260160  RH  068%=      5-min Rain = 0
KTUR 170205Z 03006KT 23/16 A2993 RMK A01 T02260155  RH  066%=      5-min Rain = 0
KTUR 170210Z 03006KT 23/15 A2993 RMK A01 T02280150  RH  063%=      5-min Rain = 0
KTUR 170215Z 04006KT 23/15 A2993 RMK A01 T02290147  RH  061%=      5-min Rain = 0
KTUR 170220Z 04006KT 23/15 A2993 RMK A01 T02280147  RH  061%=      5-min Rain = 0
KTUR 170225Z 04006KT 23/15 A2993 RMK A01 T02280147  RH  062%=      5-min Rain = 0
KTUR 170230Z 03005KT 23/15 A2993 RMK A01 T02260147  RH  062%=      5-min Rain = 0
KTUR 170235Z 03005KT 22/15 A2993 RMK A01 T02210148  RH  065%=      5-min Rain = 0
KTUR 170240Z 03005KT 22/15 A2993 RMK A01 T02170149  RH  066%=      5-min Rain = 0
KTUR 170245Z 03005KT 21/15 A2993 RMK A01 T02140149  RH  068%=      5-min Rain = 0
KTUR 170250Z 04005KT 21/15 A2993 RMK A01 T02130149  RH  068%=      5-min Rain = 0
KTUR 170255Z 05005KT 22/15 A2993 RMK A01 T02150149  RH  068%=      5-min Rain = 0
KTUR 170300Z 06005KT 22/15 A2994 RMK A01 T02150150  RH  068%=      5-min Rain = 0
KTUR 170305Z 05005KT 22/15 A2994 RMK A01 T02160151  RH  068%=      5-min Rain = 0
KTUR 170310Z 05005KT 22/15 A2994 RMK A01 T02170151  RH  068%=      5-min Rain = 0
KTUR 170315Z 05005KT 22/15 A2994 RMK A01 T02160152  RH  068%=      5-min Rain = 0
KTUR 170320Z 06004KT 22/15 A2994 RMK A01 T02150152  RH  069%=      5-min Rain = 0
KTUR 170325Z 06004KT 22/15 A2994 RMK A01 T02160151  RH  068%=      5-min Rain = 0
KTUR 170330Z 06003KT 22/15 A2995 RMK A01 T02170152  RH  068%=      5-min Rain = 0
KTUR 170335Z 05003KT 22/15 A2994 RMK A01 T02180152  RH  068%=      5-min Rain = 0
KTUR 170340Z 05003KT 22/15 A2995 RMK A01 T02170152  RH  068%=      5-min Rain = 0
KTUR 170345Z 05002KT 22/15 A2995 RMK A01 T02170153  RH  068%=      5-min Rain = 0
KTUR 170350Z 05001KT 22/15 A2995 RMK A01 T02170153  RH  069%=      5-min Rain = 0
KTUR 170355Z 05001KT 22/15 A2995 RMK A01 T02150154  RH  070%=      5-min Rain = 0
KTUR 170400Z 06002KT 22/15 A2996 RMK A01 T02170154  RH  069%=      5-min Rain = 0
KTUR 170405Z 06002KT 22/16 A2996 RMK A01 T02190155  RH  069%=      5-min Rain = 0
KTUR 170410Z 06003KT 22/16 A2997 RMK A01 T02200155  RH  068%=      5-min Rain = 0
KTUR 170415Z 03003KT 22/16 A2997 RMK A01 T02190155  RH  069%=      5-min Rain = 0
KTUR 170420Z 34003KT 21/15 A2998 RMK A01 T02080153  RH  072%=      5-min Rain = 0
KTUR 170425Z 36003KT 20/15 A2998 RMK A01 T01970152  RH  077%=      5-min Rain = 0
KTUR 170430Z 01004KT 20/15 A2998 RMK A01 T01960152  RH  077%=      5-min Rain = 0
KTUR 170435Z 01004KT 20/15 A2998 RMK A01 T02000153  RH  076%=      5-min Rain = 0
KTUR 170440Z 00003KT 20/15 A2998 RMK A01 T02000153  RH  076%=      5-min Rain = 0
KTUR 170445Z 01003KT 20/15 A2998 RMK A01 T01990154  RH  077%=      5-min Rain = 0
KTUR 170450Z 01004KT 20/16 A2998 RMK A01 T02010156  RH  077%=      5-min Rain = 0
KTUR 170455Z 00004KT 20/16 A2998 RMK A01 T02000155  RH  077%=      5-min Rain = 0

Page generated in 0.0153 seconds.